Hafer, Illinois
Current Conditions -  °F | °C
As of 12:45 PM on Thursday 23 Oct 2014 (Local Time) from KMWA Reporting Station
Broken Clouds Broken Clouds  
Wind Chill: 61°   Ceiling: 15000
Heat Index: 61°   Visibility: 20mi
Dew Point: 45°   Wind: 6mph
Humidity: 55%   Direction: 220°SW
Pressure: 30.21"   Gusts: NA
Location:  37.7927°N, 89.0997°W
Report Text: KMWA 231745Z 22005KT 20SM BKN150 16/07 A3021
Loading
Personal Weather Stations






























Interactive Weather Map
Tropical Storm Tracking
New forecast layout! Learn more

10-Day Weather Forecast

Advertisements
Track Severe Weather on mobile